sensor_id;sensor_type;location;lat;lon;timestamp;P1;durP1;ratioP1;P2;durP2;ratioP2
15764;SDS011;7983;50.744;7.086;2022-07-25T00:00:15;7.63;;;4.22;;
15764;SDS011;7983;50.744;7.086;2022-07-25T00:02:40;4.80;;;4.30;;
15764;SDS011;7983;50.744;7.086;2022-07-25T00:05:09;4.60;;;4.10;;
15764;SDS011;7983;50.744;7.086;2022-07-25T00:07:34;4.95;;;3.90;;
15764;SDS011;7983;50.744;7.086;2022-07-25T00:10:02;4.55;;;3.60;;
15764;SDS011;7983;50.744;7.086;2022-07-25T00:12:28;5.57;;;3.80;;
15764;SDS011;7983;50.744;7.086;2022-07-25T00:14:54;4.32;;;3.90;;
15764;SDS011;7983;50.744;7.086;2022-07-25T00:17:22;3.70;;;3.33;;
15764;SDS011;7983;50.744;7.086;2022-07-25T00:19:48;3.70;;;3.38;;
15764;SDS011;7983;50.744;7.086;2022-07-25T00:22:16;4.38;;;3.47;;
15764;SDS011;7983;50.744;7.086;2022-07-25T00:24:41;3.78;;;3.40;;
15764;SDS011;7983;50.744;7.086;2022-07-25T00:27:07;4.05;;;3.58;;
15764;SDS011;7983;50.744;7.086;2022-07-25T00:29:35;4.20;;;3.38;;
15764;SDS011;7983;50.744;7.086;2022-07-25T00:32:01;4.70;;;3.50;;
15764;SDS011;7983;50.744;7.086;2022-07-25T00:34:26;4.30;;;3.50;;
15764;SDS011;7983;50.744;7.086;2022-07-25T00:36:54;3.60;;;3.30;;
15764;SDS011;7983;50.744;7.086;2022-07-25T00:39:20;4.20;;;3.80;;
15764;SDS011;7983;50.744;7.086;2022-07-25T00:41:46;4.38;;;3.60;;
15764;SDS011;7983;50.744;7.086;2022-07-25T00:44:24;3.90;;;3.47;;
15764;SDS011;7983;50.744;7.086;2022-07-25T00:46:59;4.18;;;3.45;;
15764;SDS011;7983;50.744;7.086;2022-07-25T00:49:28;6.00;;;3.15;;
15764;SDS011;7983;50.744;7.086;2022-07-25T00:51:54;3.47;;;3.15;;
15764;SDS011;7983;50.744;7.086;2022-07-25T00:54:22;4.32;;;3.55;;
15764;SDS011;7983;50.744;7.086;2022-07-25T00:56:48;4.35;;;3.75;;
15764;SDS011;7983;50.744;7.086;2022-07-25T00:59:18;4.10;;;3.65;;
15764;SDS011;7983;50.744;7.086;2022-07-25T01:01:49;4.00;;;3.60;;
15764;SDS011;7983;50.744;7.086;2022-07-25T01:04:14;8.00;;;3.58;;
15764;SDS011;7983;50.744;7.086;2022-07-25T01:06:41;3.90;;;3.50;;
15764;SDS011;7983;50.744;7.086;2022-07-25T01:09:07;4.53;;;3.50;;
15764;SDS011;7983;50.744;7.086;2022-07-25T01:11:33;4.10;;;3.70;;
15764;SDS011;7983;50.744;7.086;2022-07-25T01:14:01;3.97;;;3.35;;
15764;SDS011;7983;50.744;7.086;2022-07-25T01:16:27;4.00;;;3.60;;
15764;SDS011;7983;50.744;7.086;2022-07-25T01:18:53;4.43;;;3.60;;
15764;SDS011;7983;50.744;7.086;2022-07-25T01:21:21;3.55;;;3.22;;
15764;SDS011;7983;50.744;7.086;2022-07-25T01:23:48;4.00;;;3.42;;
15764;SDS011;7983;50.744;7.086;2022-07-25T01:26:14;3.58;;;3.28;;
15764;SDS011;7983;50.744;7.086;2022-07-25T01:28:41;4.00;;;3.60;;
15764;SDS011;7983;50.744;7.086;2022-07-25T01:31:07;4.40;;;4.00;;
15764;SDS011;7983;50.744;7.086;2022-07-25T01:33:33;4.95;;;3.85;;
15764;SDS011;7983;50.744;7.086;2022-07-25T01:35:58;4.22;;;3.75;;
15764;SDS011;7983;50.744;7.086;2022-07-25T01:38:24;5.00;;;3.25;;
15764;SDS011;7983;50.744;7.086;2022-07-25T01:40:54;3.92;;;3.22;;
15764;SDS011;7983;50.744;7.086;2022-07-25T01:43:20;5.78;;;3.70;;
15764;SDS011;7983;50.744;7.086;2022-07-25T01:45:46;4.30;;;3.58;;
15764;SDS011;7983;50.744;7.086;2022-07-25T01:48:11;4.10;;;3.70;;
15764;SDS011;7983;50.744;7.086;2022-07-25T01:50:39;4.22;;;3.72;;
15764;SDS011;7983;50.744;7.086;2022-07-25T01:53:05;3.70;;;3.40;;
15764;SDS011;7983;50.744;7.086;2022-07-25T01:55:31;4.07;;;3.40;;
15764;SDS011;7983;50.744;7.086;2022-07-25T01:57:56;3.78;;;3.47;;
15764;SDS011;7983;50.744;7.086;2022-07-25T02:00:24;4.20;;;3.50;;
15764;SDS011;7983;50.744;7.086;2022-07-25T02:02:50;5.53;;;3.70;;
15764;SDS011;7983;50.744;7.086;2022-07-25T02:05:36;3.60;;;3.30;;
15764;SDS011;7983;50.744;7.086;2022-07-25T02:08:04;3.95;;;3.55;;
15764;SDS011;7983;50.744;7.086;2022-07-25T02:10:30;3.53;;;3.22;;
15764;SDS011;7983;50.744;7.086;2022-07-25T02:12:55;3.80;;;3.40;;
15764;SDS011;7983;50.744;7.086;2022-07-25T02:15:21;5.28;;;3.50;;
15764;SDS011;7983;50.744;7.086;2022-07-25T02:17:47;4.00;;;3.60;;
15764;SDS011;7983;50.744;7.086;2022-07-25T02:20:15;4.57;;;3.33;;
15764;SDS011;7983;50.744;7.086;2022-07-25T02:22:42;3.55;;;3.25;;
15764;SDS011;7983;50.744;7.086;2022-07-25T02:25:08;4.50;;;3.75;;
15764;SDS011;7983;50.744;7.086;2022-07-25T02:27:36;5.15;;;3.72;;
15764;SDS011;7983;50.744;7.086;2022-07-25T02:30:03;3.92;;;3.53;;
15764;SDS011;7983;50.744;7.086;2022-07-25T02:32:29;4.60;;;3.58;;
15764;SDS011;7983;50.744;7.086;2022-07-25T02:34:55;8.05;;;3.63;;
15764;SDS011;7983;50.744;7.086;2022-07-25T02:37:22;3.72;;;3.42;;
15764;SDS011;7983;50.744;7.086;2022-07-25T02:39:50;3.67;;;3.22;;
15764;SDS011;7983;50.744;7.086;2022-07-25T02:42:18;4.50;;;3.50;;
15764;SDS011;7983;50.744;7.086;2022-07-25T02:44:46;4.78;;;3.80;;
15764;SDS011;7983;50.744;7.086;2022-07-25T02:47:12;3.70;;;3.40;;
15764;SDS011;7983;50.744;7.086;2022-07-25T02:49:37;4.05;;;3.65;;
15764;SDS011;7983;50.744;7.086;2022-07-25T02:52:03;4.60;;;3.58;;
15764;SDS011;7983;50.744;7.086;2022-07-25T02:54:29;4.43;;;3.88;;
15764;SDS011;7983;50.744;7.086;2022-07-25T02:56:54;5.00;;;4.50;;
15764;SDS011;7983;50.744;7.086;2022-07-25T02:59:25;4.97;;;4.30;;
15764;SDS011;7983;50.744;7.086;2022-07-25T03:01:50;5.82;;;4.22;;
15764;SDS011;7983;50.744;7.086;2022-07-25T03:04:16;4.90;;;4.32;;
15764;SDS011;7983;50.744;7.086;2022-07-25T03:06:41;5.93;;;4.30;;
15764;SDS011;7983;50.744;7.086;2022-07-25T03:09:07;4.72;;;4.03;;
15764;SDS011;7983;50.744;7.086;2022-07-25T03:11:35;4.00;;;3.60;;
15764;SDS011;7983;50.744;7.086;2022-07-25T03:14:01;5.20;;;3.92;;
15764;SDS011;7983;50.744;7.086;2022-07-25T03:16:27;6.13;;;4.13;;
15764;SDS011;7983;50.744;7.086;2022-07-25T03:18:56;6.18;;;3.83;;
15764;SDS011;7983;50.744;7.086;2022-07-25T03:21:26;4.18;;;3.72;;
15764;SDS011;7983;50.744;7.086;2022-07-25T03:23:54;3.97;;;3.50;;
15764;SDS011;7983;50.744;7.086;2022-07-25T03:26:19;3.78;;;3.38;;
15764;SDS011;7983;50.744;7.086;2022-07-25T03:28:45;4.38;;;3.97;;
15764;SDS011;7983;50.744;7.086;2022-07-25T03:31:11;3.90;;;3.50;;
15764;SDS011;7983;50.744;7.086;2022-07-25T03:33:39;3.80;;;3.50;;
15764;SDS011;7983;50.744;7.086;2022-07-25T03:36:05;3.55;;;3.25;;
15764;SDS011;7983;50.744;7.086;2022-07-25T03:38:31;5.38;;;4.13;;
15764;SDS011;7983;50.744;7.086;2022-07-25T03:40:56;4.47;;;3.75;;
15764;SDS011;7983;50.744;7.086;2022-07-25T03:43:22;5.07;;;3.50;;
15764;SDS011;7983;50.744;7.086;2022-07-25T03:45:47;3.85;;;3.45;;
15764;SDS011;7983;50.744;7.086;2022-07-25T03:48:13;4.10;;;3.70;;
15764;SDS011;7983;50.744;7.086;2022-07-25T03:50:38;4.85;;;3.70;;
15764;SDS011;7983;50.744;7.086;2022-07-25T03:53:04;4.15;;;3.45;;
15764;SDS011;7983;50.744;7.086;2022-07-25T03:55:30;4.50;;;3.92;;
15764;SDS011;7983;50.744;7.086;2022-07-25T03:57:55;4.88;;;4.30;;
15764;SDS011;7983;50.744;7.086;2022-07-25T04:00:23;6.15;;;3.67;;
15764;SDS011;7983;50.744;7.086;2022-07-25T04:02:54;4.40;;;3.70;;
15764;SDS011;7983;50.744;7.086;2022-07-25T04:05:21;5.32;;;3.97;;
15764;SDS011;7983;50.744;7.086;2022-07-25T04:07:49;4.15;;;3.75;;
15764;SDS011;7983;50.744;7.086;2022-07-25T04:10:15;4.22;;;3.83;;
15764;SDS011;7983;50.744;7.086;2022-07-25T04:12:41;4.10;;;3.67;;
15764;SDS011;7983;50.744;7.086;2022-07-25T04:15:09;3.55;;;3.22;;
15764;SDS011;7983;50.744;7.086;2022-07-25T04:17:36;3.90;;;3.50;;
15764;SDS011;7983;50.744;7.086;2022-07-25T04:20:01;4.50;;;3.60;;
15764;SDS011;7983;50.744;7.086;2022-07-25T04:22:27;4.80;;;3.60;;
15764;SDS011;7983;50.744;7.086;2022-07-25T04:24:53;6.30;;;3.58;;
15764;SDS011;7983;50.744;7.086;2022-07-25T04:27:19;4.50;;;3.60;;
15764;SDS011;7983;50.744;7.086;2022-07-25T04:29:47;4.00;;;3.60;;
15764;SDS011;7983;50.744;7.086;2022-07-25T04:32:12;4.05;;;3.60;;
15764;SDS011;7983;50.744;7.086;2022-07-25T04:34:38;4.13;;;3.72;;
15764;SDS011;7983;50.744;7.086;2022-07-25T04:37:04;4.47;;;3.63;;
15764;SDS011;7983;50.744;7.086;2022-07-25T04:39:30;4.10;;;3.47;;
15764;SDS011;7983;50.744;7.086;2022-07-25T04:41:55;4.13;;;3.75;;
15764;SDS011;7983;50.744;7.086;2022-07-25T04:44:23;3.75;;;3.40;;
15764;SDS011;7983;50.744;7.086;2022-07-25T04:46:49;3.83;;;3.28;;
15764;SDS011;7983;50.744;7.086;2022-07-25T04:49:16;3.58;;;3.28;;
15764;SDS011;7983;50.744;7.086;2022-07-25T04:51:42;5.53;;;3.47;;
15764;SDS011;7983;50.744;7.086;2022-07-25T04:54:10;4.10;;;3.70;;
15764;SDS011;7983;50.744;7.086;2022-07-25T04:56:38;4.70;;;3.58;;
15764;SDS011;7983;50.744;7.086;2022-07-25T04:59:06;4.05;;;3.58;;
15764;SDS011;7983;50.744;7.086;2022-07-25T05:01:31;4.22;;;3.40;;
15764;SDS011;7983;50.744;7.086;2022-07-25T05:03:59;4.30;;;3.58;;
15764;SDS011;7983;50.744;7.086;2022-07-25T05:06:27;4.53;;;3.30;;
15764;SDS011;7983;50.744;7.086;2022-07-25T05:08:53;3.80;;;3.35;;
15764;SDS011;7983;50.744;7.086;2022-07-25T05:11:19;3.83;;;3.42;;
15764;SDS011;7983;50.744;7.086;2022-07-25T05:13:44;6.10;;;3.58;;
15764;SDS011;7983;50.744;7.086;2022-07-25T05:16:10;3.75;;;3.35;;
15764;SDS011;7983;50.744;7.086;2022-07-25T05:18:38;4.30;;;3.30;;
15764;SDS011;7983;50.744;7.086;2022-07-25T05:21:08;3.63;;;3.28;;
15764;SDS011;7983;50.744;7.086;2022-07-25T05:23:35;3.75;;;3.45;;
15764;SDS011;7983;50.744;7.086;2022-07-25T05:26:00;4.20;;;3.80;;
15764;SDS011;7983;50.744;7.086;2022-07-25T05:28:26;4.00;;;3.60;;
15764;SDS011;7983;50.744;7.086;2022-07-25T05:30:51;5.22;;;3.60;;
15764;SDS011;7983;50.744;7.086;2022-07-25T05:33:17;3.72;;;3.42;;
15764;SDS011;7983;50.744;7.086;2022-07-25T05:35:47;3.90;;;3.50;;
15764;SDS011;7983;50.744;7.086;2022-07-25T05:38:13;4.07;;;3.67;;
15764;SDS011;7983;50.744;7.086;2022-07-25T05:40:38;4.90;;;3.80;;
15764;SDS011;7983;50.744;7.086;2022-07-25T05:43:06;4.20;;;3.80;;
15764;SDS011;7983;50.744;7.086;2022-07-25T05:45:33;4.22;;;3.38;;
15764;SDS011;7983;50.744;7.086;2022-07-25T05:47:58;5.05;;;3.90;;
15764;SDS011;7983;50.744;7.086;2022-07-25T05:50:24;7.07;;;4.30;;
15764;SDS011;7983;50.744;7.086;2022-07-25T05:52:50;4.25;;;3.70;;
15764;SDS011;7983;50.744;7.086;2022-07-25T05:55:15;4.88;;;3.90;;
15764;SDS011;7983;50.744;7.086;2022-07-25T05:57:41;4.55;;;3.95;;
15764;SDS011;7983;50.744;7.086;2022-07-25T06:00:07;4.30;;;3.90;;
15764;SDS011;7983;50.744;7.086;2022-07-25T06:02:33;4.03;;;3.63;;
15764;SDS011;7983;50.744;7.086;2022-07-25T06:05:01;3.95;;;3.55;;
15764;SDS011;7983;50.744;7.086;2022-07-25T06:07:27;4.47;;;4.05;;
15764;SDS011;7983;50.744;7.086;2022-07-25T06:09:55;5.15;;;3.83;;
15764;SDS011;7983;50.744;7.086;2022-07-25T06:12:25;4.60;;;3.42;;
15764;SDS011;7983;50.744;7.086;2022-07-25T06:14:51;4.10;;;3.53;;
15764;SDS011;7983;50.744;7.086;2022-07-25T06:17:19;5.20;;;3.67;;
15764;SDS011;7983;50.744;7.086;2022-07-25T06:19:45;6.20;;;3.75;;
15764;SDS011;7983;50.744;7.086;2022-07-25T06:22:11;3.88;;;3.47;;
15764;SDS011;7983;50.744;7.086;2022-07-25T06:24:37;4.10;;;3.70;;
15764;SDS011;7983;50.744;7.086;2022-07-25T06:27:03;4.28;;;3.70;;
15764;SDS011;7983;50.744;7.086;2022-07-25T06:29:29;5.78;;;3.35;;
15764;SDS011;7983;50.744;7.086;2022-07-25T06:31:54;5.10;;;3.78;;
15764;SDS011;7983;50.744;7.086;2022-07-25T06:34:20;3.97;;;3.58;;
15764;SDS011;7983;50.744;7.086;2022-07-25T06:36:46;5.18;;;3.70;;
15764;SDS011;7983;50.744;7.086;2022-07-25T06:39:14;5.53;;;3.85;;
15764;SDS011;7983;50.744;7.086;2022-07-25T06:41:42;4.20;;;3.67;;
15764;SDS011;7983;50.744;7.086;2022-07-25T06:44:09;5.97;;;4.03;;
15764;SDS011;7983;50.744;7.086;2022-07-25T06:46:37;3.90;;;3.50;;
15764;SDS011;7983;50.744;7.086;2022-07-25T06:49:03;5.80;;;3.80;;
15764;SDS011;7983;50.744;7.086;2022-07-25T06:51:28;4.20;;;3.80;;
15764;SDS011;7983;50.744;7.086;2022-07-25T06:53:54;4.13;;;3.55;;
15764;SDS011;7983;50.744;7.086;2022-07-25T06:56:22;3.90;;;3.60;;
15764;SDS011;7983;50.744;7.086;2022-07-25T06:58:50;3.97;;;3.63;;
15764;SDS011;7983;50.744;7.086;2022-07-25T07:01:17;4.47;;;4.07;;
15764;SDS011;7983;50.744;7.086;2022-07-25T07:03:45;4.85;;;4.18;;
15764;SDS011;7983;50.744;7.086;2022-07-25T07:06:12;4.43;;;4.03;;
15764;SDS011;7983;50.744;7.086;2022-07-25T07:08:38;5.55;;;4.00;;
15764;SDS011;7983;50.744;7.086;2022-07-25T07:11:06;4.45;;;4.05;;
15764;SDS011;7983;50.744;7.086;2022-07-25T07:13:32;4.15;;;3.75;;
15764;SDS011;7983;50.744;7.086;2022-07-25T07:15:58;4.28;;;3.88;;
15764;SDS011;7983;50.744;7.086;2022-07-25T07:18:29;4.80;;;3.95;;
15764;SDS011;7983;50.744;7.086;2022-07-25T07:20:55;4.50;;;4.10;;
15764;SDS011;7983;50.744;7.086;2022-07-25T07:23:20;4.30;;;3.88;;
15764;SDS011;7983;50.744;7.086;2022-07-25T07:25:46;3.95;;;3.65;;
15764;SDS011;7983;50.744;7.086;2022-07-25T07:28:12;4.20;;;3.80;;
15764;SDS011;7983;50.744;7.086;2022-07-25T07:30:40;4.68;;;4.28;;
15764;SDS011;7983;50.744;7.086;2022-07-25T07:33:06;4.65;;;4.15;;
15764;SDS011;7983;50.744;7.086;2022-07-25T07:35:31;4.65;;;4.00;;
15764;SDS011;7983;50.744;7.086;2022-07-25T07:37:57;4.53;;;3.60;;
15764;SDS011;7983;50.744;7.086;2022-07-25T07:40:23;4.38;;;3.97;;
15764;SDS011;7983;50.744;7.086;2022-07-25T07:42:51;3.72;;;3.42;;
15764;SDS011;7983;50.744;7.086;2022-07-25T07:45:18;4.15;;;3.83;;
15764;SDS011;7983;50.744;7.086;2022-07-25T07:47:46;3.92;;;3.63;;
15764;SDS011;7983;50.744;7.086;2022-07-25T07:50:17;4.75;;;3.85;;
15764;SDS011;7983;50.744;7.086;2022-07-25T07:52:44;4.95;;;3.53;;
15764;SDS011;7983;50.744;7.086;2022-07-25T07:55:10;4.80;;;3.70;;
15764;SDS011;7983;50.744;7.086;2022-07-25T07:57:59;4.15;;;3.75;;
15764;SDS011;7983;50.744;7.086;2022-07-25T08:00:25;5.57;;;3.88;;
15764;SDS011;7983;50.744;7.086;2022-07-25T08:02:55;4.32;;;4.00;;
15764;SDS011;7983;50.744;7.086;2022-07-25T08:05:22;5.05;;;4.40;;
15764;SDS011;7983;50.744;7.086;2022-07-25T08:07:51;6.22;;;4.40;;
15764;SDS011;7983;50.744;7.086;2022-07-25T08:10:18;4.90;;;4.30;;
15764;SDS011;7983;50.744;7.086;2022-07-25T08:12:48;4.07;;;3.78;;
15764;SDS011;7983;50.744;7.086;2022-07-25T08:15:18;4.72;;;3.88;;
15764;SDS011;7983;50.744;7.086;2022-07-25T08:17:44;4.43;;;4.03;;
15764;SDS011;7983;50.744;7.086;2022-07-25T08:20:11;3.90;;;3.60;;
15764;SDS011;7983;50.744;7.086;2022-07-25T08:22:49;4.93;;;4.07;;
15764;SDS011;7983;50.744;7.086;2022-07-25T08:25:18;4.65;;;4.20;;
15764;SDS011;7983;50.744;7.086;2022-07-25T08:27:47;3.97;;;3.58;;
15764;SDS011;7983;50.744;7.086;2022-07-25T08:30:13;4.45;;;4.05;;
15764;SDS011;7983;50.744;7.086;2022-07-25T08:32:47;4.38;;;3.97;;
15764;SDS011;7983;50.744;7.086;2022-07-25T08:35:16;4.38;;;3.63;;
15764;SDS011;7983;50.744;7.086;2022-07-25T08:37:46;4.30;;;3.90;;
15764;SDS011;7983;50.744;7.086;2022-07-25T08:40:13;4.15;;;3.75;;
15764;SDS011;7983;50.744;7.086;2022-07-25T08:42:42;3.95;;;3.58;;
15764;SDS011;7983;50.744;7.086;2022-07-25T08:45:11;3.88;;;3.58;;
15764;SDS011;7983;50.744;7.086;2022-07-25T08:47:40;3.97;;;3.58;;
15764;SDS011;7983;50.744;7.086;2022-07-25T08:50:10;4.30;;;3.90;;
15764;SDS011;7983;50.744;7.086;2022-07-25T08:52:39;6.47;;;3.88;;
15764;SDS011;7983;50.744;7.086;2022-07-25T08:55:12;4.25;;;3.80;;
15764;SDS011;7983;50.744;7.086;2022-07-25T08:57:41;3.75;;;3.45;;
15764;SDS011;7983;50.744;7.086;2022-07-25T09:00:11;3.80;;;3.50;;
15764;SDS011;7983;50.744;7.086;2022-07-25T09:02:39;3.95;;;3.55;;
15764;SDS011;7983;50.744;7.086;2022-07-25T09:05:07;3.50;;;3.20;;
15764;SDS011;7983;50.744;7.086;2022-07-25T09:07:35;3.83;;;3.42;;
15764;SDS011;7983;50.744;7.086;2022-07-25T09:12:37;4.28;;;3.88;;
15764;SDS011;7983;50.744;7.086;2022-07-25T09:15:03;5.00;;;3.50;;
15764;SDS011;7983;50.744;7.086;2022-07-25T09:17:29;4.15;;;3.75;;
15764;SDS011;7983;50.744;7.086;2022-07-25T09:19:56;4.18;;;3.78;;
15764;SDS011;7983;50.744;7.086;2022-07-25T09:22:22;5.13;;;3.58;;
15764;SDS011;7983;50.744;7.086;2022-07-25T09:24:48;4.18;;;3.75;;
15764;SDS011;7983;50.744;7.086;2022-07-25T09:27:14;5.30;;;4.10;;
15764;SDS011;7983;50.744;7.086;2022-07-25T09:29:42;4.32;;;3.92;;
15764;SDS011;7983;50.744;7.086;2022-07-25T09:32:15;4.10;;;3.70;;
15764;SDS011;7983;50.744;7.086;2022-07-25T09:34:43;4.18;;;3.78;;
15764;SDS011;7983;50.744;7.086;2022-07-25T09:37:14;5.15;;;3.80;;
15764;SDS011;7983;50.744;7.086;2022-07-25T09:39:45;4.35;;;3.95;;
15764;SDS011;7983;50.744;7.086;2022-07-25T09:44:55;4.63;;;4.10;;
15764;SDS011;7983;50.744;7.086;2022-07-25T09:47:36;5.60;;;4.00;;
15764;SDS011;7983;50.744;7.086;2022-07-25T09:50:16;4.47;;;4.07;;
15764;SDS011;7983;50.744;7.086;2022-07-25T09:52:42;4.72;;;4.30;;
15764;SDS011;7983;50.744;7.086;2022-07-25T09:55:09;4.35;;;3.95;;
15764;SDS011;7983;50.744;7.086;2022-07-25T09:57:36;4.60;;;4.20;;
15764;SDS011;7983;50.744;7.086;2022-07-25T10:00:07;4.32;;;3.72;;
15764;SDS011;7983;50.744;7.086;2022-07-25T10:08:26;4.43;;;4.03;;
15764;SDS011;7983;50.744;7.086;2022-07-25T10:10:53;4.82;;;4.10;;
15764;SDS011;7983;50.744;7.086;2022-07-25T10:13:29;5.32;;;3.97;;
15764;SDS011;7983;50.744;7.086;2022-07-25T10:15:59;4.00;;;3.50;;
15764;SDS011;7983;50.744;7.086;2022-07-25T10:18:26;3.65;;;3.35;;
15764;SDS011;7983;50.744;7.086;2022-07-25T10:21:07;3.92;;;3.55;;
15764;SDS011;7983;50.744;7.086;2022-07-25T10:23:37;5.80;;;3.97;;
15764;SDS011;7983;50.744;7.086;2022-07-25T10:28:36;4.22;;;3.72;;
15764;SDS011;7983;50.744;7.086;2022-07-25T10:31:18;3.90;;;3.50;;
15764;SDS011;7983;50.744;7.086;2022-07-25T10:33:59;4.50;;;3.65;;
15764;SDS011;7983;50.744;7.086;2022-07-25T10:39:09;4.18;;;3.78;;
15764;SDS011;7983;50.744;7.086;2022-07-25T10:41:39;7.32;;;4.18;;
15764;SDS011;7983;50.744;7.086;2022-07-25T10:44:10;6.15;;;4.25;;
15764;SDS011;7983;50.744;7.086;2022-07-25T10:46:40;4.85;;;4.07;;
15764;SDS011;7983;50.744;7.086;2022-07-25T10:49:20;4.13;;;3.72;;
15764;SDS011;7983;50.744;7.086;2022-07-25T10:51:53;4.20;;;3.80;;
15764;SDS011;7983;50.744;7.086;2022-07-25T10:54:21;5.30;;;4.07;;
15764;SDS011;7983;50.744;7.086;2022-07-25T10:56:57;4.72;;;3.92;;
15764;SDS011;7983;50.744;7.086;2022-07-25T10:59:24;5.25;;;4.20;;
15764;SDS011;7983;50.744;7.086;2022-07-25T11:02:01;4.80;;;3.88;;
15764;SDS011;7983;50.744;7.086;2022-07-25T11:04:28;7.07;;;4.60;;
15764;SDS011;7983;50.744;7.086;2022-07-25T11:07:06;5.43;;;4.10;;
15764;SDS011;7983;50.744;7.086;2022-07-25T11:09:41;4.75;;;4.30;;
15764;SDS011;7983;50.744;7.086;2022-07-25T11:12:08;4.20;;;3.80;;
15764;SDS011;7983;50.744;7.086;2022-07-25T11:14:40;8.20;;;4.18;;
15764;SDS011;7983;50.744;7.086;2022-07-25T11:19:39;7.78;;;4.10;;
15764;SDS011;7983;50.744;7.086;2022-07-25T11:22:06;6.22;;;4.07;;
15764;SDS011;7983;50.744;7.086;2022-07-25T11:24:36;7.07;;;4.50;;
15764;SDS011;7983;50.744;7.086;2022-07-25T11:27:09;5.82;;;3.97;;
15764;SDS011;7983;50.744;7.086;2022-07-25T11:29:47;4.28;;;3.88;;
15764;SDS011;7983;50.744;7.086;2022-07-25T11:32:16;4.82;;;3.65;;
15764;SDS011;7983;50.744;7.086;2022-07-25T11:34:52;6.28;;;3.92;;
15764;SDS011;7983;50.744;7.086;2022-07-25T11:37:20;4.47;;;4.07;;
15764;SDS011;7983;50.744;7.086;2022-07-25T11:39:48;4.80;;;3.80;;
15764;SDS011;7983;50.744;7.086;2022-07-25T11:42:15;4.22;;;3.83;;
15764;SDS011;7983;50.744;7.086;2022-07-25T11:44:47;4.50;;;3.90;;
15764;SDS011;7983;50.744;7.086;2022-07-25T11:47:25;4.70;;;3.97;;
15764;SDS011;7983;50.744;7.086;2022-07-25T11:49:54;4.03;;;3.63;;
15764;SDS011;7983;50.744;7.086;2022-07-25T11:52:31;5.40;;;4.20;;
15764;SDS011;7983;50.744;7.086;2022-07-25T11:57:29;4.65;;;4.25;;
15764;SDS011;7983;50.744;7.086;2022-07-25T11:59:59;6.72;;;3.90;;
15764;SDS011;7983;50.744;7.086;2022-07-25T12:02:30;17.83;;;4.40;;
15764;SDS011;7983;50.744;7.086;2022-07-25T12:04:58;6.03;;;4.25;;
15764;SDS011;7983;50.744;7.086;2022-07-25T12:10:17;5.82;;;4.40;;
15764;SDS011;7983;50.744;7.086;2022-07-25T12:12:54;4.35;;;3.90;;
15764;SDS011;7983;50.744;7.086;2022-07-25T12:15:24;7.22;;;4.10;;
15764;SDS011;7983;50.744;7.086;2022-07-25T12:17:52;5.05;;;4.10;;
15764;SDS011;7983;50.744;7.086;2022-07-25T12:20:20;5.03;;;3.95;;
15764;SDS011;7983;50.744;7.086;2022-07-25T12:22:49;4.82;;;3.83;;
15764;SDS011;7983;50.744;7.086;2022-07-25T12:25:18;6.43;;;4.32;;
15764;SDS011;7983;50.744;7.086;2022-07-25T12:27:47;5.90;;;4.20;;
15764;SDS011;7983;50.744;7.086;2022-07-25T12:30:16;4.47;;;3.75;;
15764;SDS011;7983;50.744;7.086;2022-07-25T12:32:42;4.63;;;3.55;;
15764;SDS011;7983;50.744;7.086;2022-07-25T12:35:08;5.43;;;3.55;;
15764;SDS011;7983;50.744;7.086;2022-07-25T12:37:38;4.05;;;3.22;;
15764;SDS011;7983;50.744;7.086;2022-07-25T12:40:07;3.63;;;3.33;;
15764;SDS011;7983;50.744;7.086;2022-07-25T12:42:36;4.32;;;3.53;;
15764;SDS011;7983;50.744;7.086;2022-07-25T12:45:05;4.13;;;3.72;;
15764;SDS011;7983;50.744;7.086;2022-07-25T12:47:32;8.02;;;3.88;;
15764;SDS011;7983;50.744;7.086;2022-07-25T12:50:03;3.50;;;3.20;;
15764;SDS011;7983;50.744;7.086;2022-07-25T12:52:31;4.30;;;3.30;;
15764;SDS011;7983;50.744;7.086;2022-07-25T12:54:58;4.47;;;2.92;;
15764;SDS011;7983;50.744;7.086;2022-07-25T12:57:23;4.32;;;3.17;;
15764;SDS011;7983;50.744;7.086;2022-07-25T12:59:52;4.00;;;3.30;;
15764;SDS011;7983;50.744;7.086;2022-07-25T13:02:17;5.85;;;3.55;;
15764;SDS011;7983;50.744;7.086;2022-07-25T13:04:48;3.53;;;3.22;;
15764;SDS011;7983;50.744;7.086;2022-07-25T13:07:13;4.43;;;3.25;;
15764;SDS011;7983;50.744;7.086;2022-07-25T13:09:41;3.50;;;3.20;;
15764;SDS011;7983;50.744;7.086;2022-07-25T13:12:07;5.45;;;3.65;;
15764;SDS011;7983;50.744;7.086;2022-07-25T13:14:35;3.75;;;3.35;;
15764;SDS011;7983;50.744;7.086;2022-07-25T13:17:01;3.85;;;3.20;;
15764;SDS011;7983;50.744;7.086;2022-07-25T13:19:29;4.00;;;3.10;;
15764;SDS011;7983;50.744;7.086;2022-07-25T13:21:56;4.75;;;2.97;;
15764;SDS011;7983;50.744;7.086;2022-07-25T13:24:24;5.45;;;3.50;;
15764;SDS011;7983;50.744;7.086;2022-07-25T13:26:50;3.80;;;3.30;;
15764;SDS011;7983;50.744;7.086;2022-07-25T13:29:16;6.57;;;3.15;;
15764;SDS011;7983;50.744;7.086;2022-07-25T13:31:41;4.40;;;3.00;;
15764;SDS011;7983;50.744;7.086;2022-07-25T13:34:07;3.03;;;2.45;;
15764;SDS011;7983;50.744;7.086;2022-07-25T13:36:36;3.95;;;2.67;;
15764;SDS011;7983;50.744;7.086;2022-07-25T13:39:03;6.40;;;3.17;;
15764;SDS011;7983;50.744;7.086;2022-07-25T13:41:30;3.97;;;2.50;;
15764;SDS011;7983;50.744;7.086;2022-07-25T13:43:56;2.45;;;2.17;;
15764;SDS011;7983;50.744;7.086;2022-07-25T13:46:22;7.85;;;2.80;;
15764;SDS011;7983;50.744;7.086;2022-07-25T13:48:49;2.50;;;2.30;;
15764;SDS011;7983;50.744;7.086;2022-07-25T13:51:18;4.60;;;2.28;;
15764;SDS011;7983;50.744;7.086;2022-07-25T13:53:47;3.33;;;2.03;;
15764;SDS011;7983;50.744;7.086;2022-07-25T13:56:13;3.10;;;2.22;;
15764;SDS011;7983;50.744;7.086;2022-07-25T13:58:39;3.40;;;2.28;;
15764;SDS011;7983;50.744;7.086;2022-07-25T14:01:05;2.30;;;1.90;;
15764;SDS011;7983;50.744;7.086;2022-07-25T14:03:32;5.25;;;2.00;;
15764;SDS011;7983;50.744;7.086;2022-07-25T14:05:58;3.97;;;2.20;;
15764;SDS011;7983;50.744;7.086;2022-07-25T14:08:24;3.08;;;2.00;;
15764;SDS011;7983;50.744;7.086;2022-07-25T14:10:50;3.05;;;1.80;;
15764;SDS011;7983;50.744;7.086;2022-07-25T14:13:16;3.25;;;1.70;;
15764;SDS011;7983;50.744;7.086;2022-07-25T14:15:45;3.05;;;2.00;;
15764;SDS011;7983;50.744;7.086;2022-07-25T14:18:11;3.95;;;1.95;;
15764;SDS011;7983;50.744;7.086;2022-07-25T14:20:36;4.22;;;1.98;;
15764;SDS011;7983;50.744;7.086;2022-07-25T14:23:02;3.78;;;1.85;;
15764;SDS011;7983;50.744;7.086;2022-07-25T14:25:28;3.35;;;1.90;;
15764;SDS011;7983;50.744;7.086;2022-07-25T14:27:57;3.35;;;1.63;;
15764;SDS011;7983;50.744;7.086;2022-07-25T14:30:26;4.88;;;1.55;;
15764;SDS011;7983;50.744;7.086;2022-07-25T14:32:54;2.17;;;1.65;;
15764;SDS011;7983;50.744;7.086;2022-07-25T14:35:19;1.63;;;1.40;;
15764;SDS011;7983;50.744;7.086;2022-07-25T14:37:45;2.38;;;1.70;;
15764;SDS011;7983;50.744;7.086;2022-07-25T14:40:13;3.60;;;1.33;;
15764;SDS011;7983;50.744;7.086;2022-07-25T14:42:39;2.88;;;1.50;;
15764;SDS011;7983;50.744;7.086;2022-07-25T14:45:08;1.98;;;1.40;;
15764;SDS011;7983;50.744;7.086;2022-07-25T14:47:37;7.38;;;1.60;;
15764;SDS011;7983;50.744;7.086;2022-07-25T14:50:03;2.63;;;1.67;;
15764;SDS011;7983;50.744;7.086;2022-07-25T14:52:32;3.92;;;1.70;;
15764;SDS011;7983;50.744;7.086;2022-07-25T14:54:58;2.45;;;1.60;;
15764;SDS011;7983;50.744;7.086;2022-07-25T14:57:23;2.92;;;1.95;;
15764;SDS011;7983;50.744;7.086;2022-07-25T14:59:49;3.67;;;1.63;;
15764;SDS011;7983;50.744;7.086;2022-07-25T15:02:14;2.10;;;1.60;;
15764;SDS011;7983;50.744;7.086;2022-07-25T15:04:43;2.05;;;1.60;;
15764;SDS011;7983;50.744;7.086;2022-07-25T15:07:09;2.08;;;1.58;;
15764;SDS011;7983;50.744;7.086;2022-07-25T15:09:34;3.10;;;1.55;;
15764;SDS011;7983;50.744;7.086;2022-07-25T15:12:00;2.42;;;1.70;;
15764;SDS011;7983;50.744;7.086;2022-07-25T15:14:26;2.92;;;1.77;;
15764;SDS011;7983;50.744;7.086;2022-07-25T15:16:53;3.38;;;1.60;;
15764;SDS011;7983;50.744;7.086;2022-07-25T15:19:19;3.70;;;1.70;;
15764;SDS011;7983;50.744;7.086;2022-07-25T15:21:45;2.85;;;1.70;;
15764;SDS011;7983;50.744;7.086;2022-07-25T15:24:13;3.60;;;1.63;;
15764;SDS011;7983;50.744;7.086;2022-07-25T15:26:38;9.32;;;1.67;;